createdAt,value
2023-02-13T00:01:17.621Z,40.83
2023-02-13T00:03:45.747Z,40.83
2023-02-13T00:06:13.873Z,42.63
2023-02-13T00:08:42.043Z,32.20
2023-02-13T00:11:10.058Z,39.03
2023-02-13T00:13:38.143Z,34.93
2023-02-13T00:16:06.812Z,32.20
2023-02-13T00:18:38.481Z,26.63
2023-02-13T00:21:08.614Z,33.10
2023-02-13T00:23:38.240Z,29.60
2023-02-13T00:26:09.174Z,28.20
2023-02-13T00:28:37.826Z,29.67
2023-02-13T00:31:08.404Z,23.80
2023-02-13T00:33:38.900Z,24.03
2023-02-13T00:36:08.934Z,22.77
2023-02-13T00:38:37.415Z,20.10
2023-02-13T00:41:06.048Z,23.47
2023-02-13T00:43:34.867Z,20.10
2023-02-13T00:46:03.398Z,19.73
2023-02-13T00:48:32.829Z,17.20
2023-02-13T00:51:02.651Z,18.53
2023-02-13T00:53:32.060Z,15.37
2023-02-13T00:56:00.378Z,13.40
2023-02-13T00:58:28.838Z,10.30
2023-02-13T01:00:57.435Z,9.90
2023-02-13T01:03:26.018Z,9.07
2023-02-13T01:05:54.549Z,9.00
2023-02-13T01:08:23.927Z,9.50
2023-02-13T01:10:52.067Z,7.20
2023-02-13T01:13:20.130Z,7.33
2023-02-13T01:15:49.616Z,6.53
2023-02-13T01:18:19.572Z,5.03
2023-02-13T01:20:58.529Z,4.57
2023-02-13T01:23:31.960Z,7.03
2023-02-13T01:26:00.132Z,5.43
2023-02-13T01:28:28.559Z,4.00
2023-02-13T01:30:58.221Z,5.07
2023-02-13T01:33:42.689Z,4.23
2023-02-13T01:36:14.436Z,4.27
2023-02-13T01:38:44.893Z,5.70
2023-02-13T01:41:15.526Z,5.70
2023-02-13T01:43:48.640Z,4.93
2023-02-13T01:46:22.195Z,4.83
2023-02-13T01:48:52.203Z,3.97
2023-02-13T01:51:24.052Z,7.10
2023-02-13T01:53:59.702Z,3.43
2023-02-13T01:56:30.785Z,6.00
2023-02-13T01:59:02.684Z,4.20
2023-02-13T02:01:32.285Z,5.30
2023-02-13T02:04:06.906Z,6.70
2023-02-13T02:06:40.174Z,7.60
2023-02-13T02:09:22.703Z,4.27
2023-02-13T02:11:54.666Z,3.93
2023-02-13T02:14:22.719Z,5.40
2023-02-13T02:16:50.749Z,5.23
2023-02-13T02:19:29.357Z,5.93
2023-02-13T02:22:35.906Z,4.43
2023-02-13T02:25:40.457Z,4.57
2023-02-13T02:28:43.485Z,4.17
2023-02-13T02:31:59.396Z,5.73
2023-02-13T02:34:36.403Z,6.07
2023-02-13T02:37:19.413Z,5.60
2023-02-13T02:40:00.825Z,4.67
2023-02-13T02:42:35.011Z,5.10
2023-02-13T02:45:10.757Z,6.53
2023-02-13T02:48:05.585Z,7.03
2023-02-13T02:50:39.326Z,6.97
2023-02-13T02:53:30.833Z,9.90
2023-02-13T02:56:07.470Z,8.40
2023-02-13T02:58:57.737Z,11.50
2023-02-13T03:01:47.155Z,9.17
2023-02-13T03:04:37.814Z,7.43
2023-02-13T03:07:10.427Z,9.27
2023-02-13T03:09:58.349Z,8.93
2023-02-13T03:12:52.187Z,9.47
2023-02-13T03:15:20.240Z,11.53
2023-02-13T03:18:05.966Z,7.80
2023-02-13T03:21:00.999Z,10.97
2023-02-13T03:23:40.848Z,12.47
2023-02-13T03:26:33.105Z,13.37
2023-02-13T03:29:28.110Z,10.10
2023-02-13T03:32:01.561Z,11.57
2023-02-13T03:34:49.979Z,14.43
2023-02-13T03:37:37.704Z,13.47
2023-02-13T03:40:11.006Z,13.13
2023-02-13T03:42:43.776Z,11.87
2023-02-13T03:45:33.359Z,15.67
2023-02-13T03:48:09.657Z,14.93
2023-02-13T03:50:41.258Z,17.90
2023-02-13T03:53:13.387Z,13.23
2023-02-13T03:56:04.118Z,12.37
2023-02-13T03:58:54.466Z,14.80
2023-02-13T04:01:27.537Z,14.23
2023-02-13T04:04:02.430Z,15.93
2023-02-13T04:06:34.030Z,13.40
2023-02-13T04:09:02.228Z,15.20
2023-02-13T04:11:36.523Z,14.40
2023-02-13T04:14:09.611Z,16.43
2023-02-13T04:16:41.752Z,17.73
2023-02-13T04:19:11.710Z,17.77
2023-02-13T04:21:41.781Z,15.60
2023-02-13T04:24:10.475Z,18.37
2023-02-13T04:26:43.100Z,18.30
2023-02-13T04:29:11.193Z,17.80
2023-02-13T04:31:40.273Z,22.53
2023-02-13T04:34:08.445Z,22.23
2023-02-13T04:36:36.494Z,32.63
2023-02-13T04:39:04.837Z,28.30
2023-02-13T04:41:33.032Z,34.77
2023-02-13T04:44:02.495Z,25.37
2023-02-13T04:46:30.669Z,26.37
2023-02-13T04:48:58.772Z,23.77
2023-02-13T04:51:26.812Z,26.70
2023-02-13T04:53:55.306Z,21.20
2023-02-13T04:56:23.904Z,18.97
2023-02-13T04:58:52.359Z,17.60
2023-02-13T05:01:22.533Z,18.03
2023-02-13T05:03:51.226Z,17.27
2023-02-13T05:06:19.831Z,14.57
2023-02-13T05:08:47.872Z,12.80
2023-02-13T05:11:15.955Z,13.43
2023-02-13T05:13:44.036Z,12.47
2023-02-13T05:16:12.119Z,13.83
2023-02-13T05:18:41.561Z,12.40
2023-02-13T05:21:26.872Z,12.50
2023-02-13T05:23:54.974Z,10.53
2023-02-13T05:26:22.933Z,9.93
2023-02-13T05:29:08.430Z,8.60
2023-02-13T05:31:36.654Z,9.67
2023-02-13T05:34:06.225Z,8.37
2023-02-13T05:36:34.301Z,10.00
2023-02-13T05:39:02.375Z,6.73
2023-02-13T05:41:30.489Z,7.77
2023-02-13T05:43:58.614Z,11.53
2023-02-13T05:46:26.804Z,8.50
2023-02-13T05:48:54.848Z,8.07
2023-02-13T05:51:24.339Z,10.70
2023-02-13T05:53:52.589Z,6.40
2023-02-13T05:56:20.843Z,8.53
2023-02-13T05:58:49.062Z,9.00
2023-02-13T06:01:17.153Z,11.43
2023-02-13T06:03:45.252Z,8.80
2023-02-13T06:06:13.394Z,8.30
2023-02-13T06:08:42.945Z,6.87
2023-02-13T06:11:12.238Z,6.83
2023-02-13T06:13:40.955Z,6.37
2023-02-13T06:16:09.520Z,5.93
2023-02-13T06:18:38.975Z,5.83
2023-02-13T06:21:07.565Z,6.47
2023-02-13T06:23:36.091Z,6.80
2023-02-13T06:26:07.279Z,6.27
2023-02-13T06:28:35.645Z,9.53
2023-02-13T06:31:04.098Z,8.07
2023-02-13T06:33:32.509Z,6.43
2023-02-13T06:36:00.730Z,6.97
2023-02-13T06:38:28.936Z,7.40
2023-02-13T06:41:00.923Z,7.63
2023-02-13T06:43:30.397Z,10.90
2023-02-13T06:45:58.431Z,9.73
2023-02-13T06:48:26.898Z,12.77
2023-02-13T06:50:55.298Z,9.03
2023-02-13T06:53:24.972Z,9.60
2023-02-13T06:55:54.120Z,8.77
2023-02-13T06:58:22.719Z,10.60
2023-02-13T07:00:53.105Z,8.27
2023-02-13T07:03:21.252Z,8.43
2023-02-13T07:05:51.943Z,8.23
2023-02-13T07:08:20.595Z,10.73
2023-02-13T07:10:48.763Z,10.37
2023-02-13T07:13:16.922Z,11.27
2023-02-13T07:15:45.184Z,10.10
2023-02-13T07:18:14.680Z,8.77
2023-02-13T07:20:42.902Z,8.10
2023-02-13T07:23:12.314Z,8.33
2023-02-13T07:25:40.401Z,10.77
2023-02-13T07:28:08.778Z,10.57
2023-02-13T07:30:37.131Z,9.80
2023-02-13T07:33:06.558Z,9.43
2023-02-13T07:35:37.760Z,9.53
2023-02-13T07:38:06.450Z,9.73
2023-02-13T07:40:34.845Z,9.80
2023-02-13T07:43:03.300Z,6.83
2023-02-13T07:45:31.890Z,9.03
2023-02-13T07:48:04.128Z,12.10
2023-02-13T07:50:32.952Z,10.50
2023-02-13T07:53:03.842Z,8.63
2023-02-13T07:55:32.719Z,11.23
2023-02-13T07:58:02.554Z,11.07
2023-02-13T08:00:30.762Z,10.20
2023-02-13T08:03:01.172Z,10.57
2023-02-13T08:05:29.416Z,11.47
2023-02-13T08:07:57.641Z,9.90
2023-02-13T08:10:44.272Z,9.13
2023-02-13T08:13:17.206Z,10.07
2023-02-13T08:15:45.584Z,10.33
2023-02-13T08:18:13.651Z,9.73
2023-02-13T08:20:41.795Z,10.53
2023-02-13T08:23:12.744Z,11.10
2023-02-13T08:25:42.964Z,12.87
2023-02-13T08:28:11.295Z,54.87
2023-02-13T08:30:39.791Z,79.90
2023-02-13T08:33:07.893Z,44.80
2023-02-13T08:35:36.430Z,20.33
2023-02-13T08:38:06.050Z,14.33
2023-02-13T08:40:34.276Z,9.90
2023-02-13T08:43:04.888Z,9.50
2023-02-13T08:45:34.096Z,10.30
2023-02-13T08:48:04.024Z,11.53
2023-02-13T08:50:32.849Z,9.10
2023-02-13T08:53:01.089Z,9.33
2023-02-13T08:55:29.935Z,10.63
2023-02-13T08:58:00.491Z,10.27
2023-02-13T09:00:30.414Z,9.23
2023-02-13T09:03:03.317Z,11.23
2023-02-13T09:05:32.837Z,11.67
2023-02-13T09:08:02.811Z,11.53
2023-02-13T09:10:31.128Z,9.93
2023-02-13T09:12:59.514Z,10.10
2023-02-13T09:15:29.122Z,10.43
2023-02-13T09:17:57.414Z,9.87
2023-02-13T09:20:25.818Z,10.63
2023-02-13T09:22:55.790Z,9.63
2023-02-13T09:25:24.168Z,10.07
2023-02-13T09:27:52.446Z,14.07
2023-02-13T09:30:24.408Z,11.67
2023-02-13T09:32:55.355Z,10.97
2023-02-13T09:35:24.234Z,13.07
2023-02-13T09:37:52.417Z,14.83
2023-02-13T09:40:27.024Z,12.07
2023-02-13T09:43:02.241Z,14.07
2023-02-13T09:45:30.512Z,13.53
2023-02-13T09:48:00.852Z,15.17
2023-02-13T09:50:33.403Z,15.37
2023-02-13T09:53:02.274Z,14.63
2023-02-13T09:55:37.565Z,12.73
2023-02-13T09:58:16.301Z,14.77
2023-02-13T10:00:50.630Z,13.77
2023-02-13T10:03:29.060Z,13.50
2023-02-13T10:06:05.527Z,13.97
2023-02-13T10:08:44.973Z,14.83
2023-02-13T10:11:34.674Z,13.10
2023-02-13T10:14:10.090Z,13.67
2023-02-13T10:16:42.211Z,15.73
2023-02-13T10:19:20.209Z,14.83
2023-02-13T10:21:54.039Z,15.90
2023-02-13T10:24:33.124Z,15.17
2023-02-13T10:27:06.193Z,16.30
2023-02-13T10:29:57.733Z,13.17
2023-02-13T10:32:30.206Z,21.93
2023-02-13T10:35:03.104Z,13.80
2023-02-13T10:37:31.358Z,15.77
2023-02-13T10:39:59.549Z,12.63
2023-02-13T10:42:38.444Z,11.00
2023-02-13T10:45:26.755Z,12.40
2023-02-13T10:48:15.702Z,10.07
2023-02-13T10:50:52.975Z,9.43
2023-02-13T10:53:29.792Z,11.30
2023-02-13T10:56:14.600Z,10.47
2023-02-13T10:59:03.550Z,11.77
2023-02-13T11:01:39.059Z,11.73
2023-02-13T11:04:10.962Z,12.03
2023-02-13T11:06:44.483Z,12.87
2023-02-13T11:09:13.654Z,13.23
2023-02-13T11:11:43.927Z,21.00
2023-02-13T11:14:15.906Z,28.13
2023-02-13T11:16:55.657Z,13.67
2023-02-13T11:19:29.961Z,11.10
2023-02-13T11:22:02.893Z,12.00
2023-02-13T11:24:32.685Z,13.33
2023-02-13T11:27:05.925Z,12.67
2023-02-13T11:29:36.283Z,10.97
2023-02-13T11:32:22.250Z,11.47
2023-02-13T11:34:51.946Z,14.70
2023-02-13T11:37:25.504Z,12.83
2023-02-13T11:39:55.426Z,12.00
2023-02-13T11:42:30.613Z,12.67
2023-02-13T11:45:02.941Z,12.50
2023-02-13T11:47:37.112Z,12.07
2023-02-13T11:50:07.219Z,10.17
2023-02-13T11:52:37.772Z,12.17
2023-02-13T11:55:25.064Z,10.33
2023-02-13T11:57:58.588Z,15.17
2023-02-13T12:00:37.437Z,12.53
2023-02-13T12:03:27.189Z,11.53
2023-02-13T12:06:03.928Z,14.53
2023-02-13T12:08:35.928Z,14.27
2023-02-13T12:11:11.165Z,15.43
2023-02-13T12:13:40.273Z,14.33
2023-02-13T12:16:18.314Z,15.40
2023-02-13T12:18:50.317Z,12.93
2023-02-13T12:21:35.714Z,15.33
2023-02-13T12:24:11.846Z,14.90
2023-02-13T12:26:43.619Z,15.27
2023-02-13T12:29:34.310Z,13.43
2023-02-13T12:32:16.756Z,14.33
2023-02-13T12:35:17.630Z,14.70
2023-02-13T12:37:58.448Z,17.43
2023-02-13T12:41:09.125Z,16.00
2023-02-13T12:44:10.342Z,15.50
2023-02-13T12:46:45.756Z,55.30
2023-02-13T12:49:35.312Z,70.40
2023-02-13T12:52:16.209Z,38.67
2023-02-13T12:54:57.675Z,21.77
2023-02-13T12:57:43.796Z,17.43
2023-02-13T13:00:27.717Z,15.37
2023-02-13T13:03:12.293Z,15.73
2023-02-13T13:06:10.847Z,14.03
2023-02-13T13:09:00.813Z,16.70
2023-02-13T13:11:45.900Z,17.20
2023-02-13T13:14:22.490Z,15.87
2023-02-13T13:16:58.101Z,17.97
2023-02-13T13:19:36.997Z,18.20
2023-02-13T13:22:08.578Z,15.17
2023-02-13T13:24:59.499Z,15.87
2023-02-13T13:27:31.810Z,17.70
2023-02-13T13:30:17.837Z,17.47
2023-02-13T13:32:49.289Z,16.23
2023-02-13T13:35:17.971Z,17.03
2023-02-13T13:38:02.562Z,16.27
2023-02-13T13:40:41.273Z,16.70
2023-02-13T13:43:21.262Z,16.30
2023-02-13T13:45:58.831Z,17.97
2023-02-13T13:48:53.805Z,17.13
2023-02-13T13:51:22.494Z,18.23
2023-02-13T13:54:21.624Z,17.37
2023-02-13T13:57:23.032Z,17.47
2023-02-13T14:00:19.918Z,14.97
2023-02-13T14:02:51.557Z,17.97
2023-02-13T14:05:28.870Z,18.03
2023-02-13T14:07:59.609Z,18.63
2023-02-13T14:11:07.637Z,17.20
2023-02-13T14:13:38.119Z,16.77
2023-02-13T14:16:10.660Z,16.70
2023-02-13T14:18:47.868Z,20.13
2023-02-13T14:21:25.243Z,17.13
2023-02-13T14:23:54.229Z,16.70
2023-02-13T14:26:40.379Z,18.00
2023-02-13T14:29:40.827Z,14.33
2023-02-13T14:32:20.966Z,17.87
2023-02-13T14:35:00.496Z,18.30
2023-02-13T14:37:36.733Z,19.77
2023-02-13T14:40:30.864Z,15.07
2023-02-13T14:43:02.526Z,17.57
2023-02-13T14:45:33.981Z,19.40
2023-02-13T14:48:08.990Z,15.33
2023-02-13T14:50:47.544Z,20.80
2023-02-13T14:53:23.286Z,16.77
2023-02-13T14:55:57.953Z,15.40
2023-02-13T14:58:30.901Z,17.27
2023-02-13T15:01:03.669Z,19.90
2023-02-13T15:03:39.191Z,16.70
2023-02-13T15:06:15.340Z,17.77
2023-02-13T15:08:49.652Z,15.77
2023-02-13T15:11:37.083Z,18.13
2023-02-13T15:14:26.143Z,20.23
2023-02-13T15:16:58.453Z,15.17
2023-02-13T15:19:28.399Z,18.70
2023-02-13T15:22:00.486Z,15.57
2023-02-13T15:24:45.939Z,18.83
2023-02-13T15:27:20.174Z,15.93
2023-02-13T15:30:00.049Z,17.57
2023-02-13T15:32:31.821Z,15.60
2023-02-13T15:35:00.485Z,16.30
2023-02-13T15:37:31.886Z,17.70
2023-02-13T15:40:16.726Z,18.37
2023-02-13T15:42:45.017Z,18.43
2023-02-13T15:45:18.490Z,17.43
2023-02-13T15:47:48.007Z,19.17
2023-02-13T15:50:21.502Z,15.60
2023-02-13T15:52:52.990Z,16.43
2023-02-13T15:55:24.211Z,17.47
2023-02-13T15:57:53.751Z,20.63
2023-02-13T16:00:26.216Z,16.83
2023-02-13T16:02:56.379Z,19.73
2023-02-13T16:05:39.446Z,17.17
2023-02-13T16:08:43.861Z,19.13
2023-02-13T16:11:27.122Z,19.20
2023-02-13T16:14:04.763Z,18.07
2023-02-13T16:16:37.649Z,19.23
2023-02-13T16:19:06.378Z,16.57
2023-02-13T16:21:36.011Z,20.13
2023-02-13T16:24:08.788Z,19.27
2023-02-13T16:26:39.324Z,17.87
2023-02-13T16:29:12.127Z,18.50
2023-02-13T16:31:41.542Z,18.93
2023-02-13T16:34:24.162Z,19.97
2023-02-13T16:36:52.737Z,19.47
2023-02-13T16:39:24.570Z,18.10
2023-02-13T16:41:53.300Z,19.23
2023-02-13T16:44:30.580Z,17.27
2023-02-13T16:47:01.530Z,18.43
2023-02-13T16:49:32.167Z,19.23
2023-02-13T16:52:08.959Z,18.33
2023-02-13T16:54:47.967Z,17.93
2023-02-13T16:57:23.739Z,16.63
2023-02-13T17:00:19.761Z,18.20
2023-02-13T17:02:49.225Z,22.77
2023-02-13T17:05:21.663Z,18.53
2023-02-13T17:07:52.190Z,20.30
2023-02-13T17:10:24.191Z,22.50
2023-02-13T17:12:53.109Z,21.47
2023-02-13T17:15:24.144Z,17.73
2023-02-13T17:17:53.698Z,20.10
2023-02-13T17:20:24.006Z,19.30
2023-02-13T17:22:54.086Z,20.23
2023-02-13T17:25:25.428Z,16.40
2023-02-13T17:27:55.869Z,23.70
2023-02-13T17:30:26.190Z,18.00
2023-02-13T17:32:59.574Z,18.97
2023-02-13T17:35:27.738Z,20.20
2023-02-13T17:37:55.890Z,16.60
2023-02-13T17:40:29.679Z,15.87
2023-02-13T17:42:59.484Z,19.07
2023-02-13T17:45:30.380Z,19.47
2023-02-13T17:47:58.902Z,23.47
2023-02-13T17:50:28.193Z,19.40
2023-02-13T17:52:56.873Z,18.67
2023-02-13T17:55:29.464Z,23.80
2023-02-13T17:57:58.890Z,22.47
2023-02-13T18:00:29.218Z,18.63
2023-02-13T18:02:59.203Z,18.93
2023-02-13T18:05:27.939Z,17.63
2023-02-13T18:07:56.394Z,19.57
2023-02-13T18:10:27.680Z,22.30
2023-02-13T18:12:58.358Z,20.97
2023-02-13T18:15:26.633Z,19.30
2023-02-13T18:17:54.964Z,17.40
2023-02-13T18:20:23.197Z,22.03
2023-02-13T18:22:51.632Z,23.57
2023-02-13T18:25:20.865Z,20.80
2023-02-13T18:27:50.539Z,20.20
2023-02-13T18:30:20.255Z,22.93
2023-02-13T18:32:52.536Z,19.33
2023-02-13T18:35:20.999Z,20.00
2023-02-13T18:37:49.530Z,18.53
2023-02-13T18:40:17.974Z,19.60
2023-02-13T18:42:46.310Z,17.83
2023-02-13T18:45:15.863Z,18.93
2023-02-13T18:47:44.119Z,20.57
2023-02-13T18:50:13.566Z,21.20
2023-02-13T18:52:41.646Z,18.63
2023-02-13T18:55:10.200Z,21.57
2023-02-13T18:57:43.519Z,22.40
2023-02-13T19:00:14.254Z,25.03
2023-02-13T19:02:43.856Z,23.87
2023-02-13T19:05:12.019Z,22.83
2023-02-13T19:07:40.231Z,24.67
2023-02-13T19:10:08.891Z,24.30
2023-02-13T19:12:37.105Z,26.07
2023-02-13T19:15:06.163Z,22.33
2023-02-13T19:17:36.027Z,24.57
2023-02-13T19:20:06.681Z,24.63
2023-02-13T19:22:34.799Z,24.47
2023-02-13T19:25:02.818Z,25.97
2023-02-13T19:27:31.180Z,23.93
2023-02-13T19:29:59.584Z,25.10
2023-02-13T19:32:27.931Z,24.20
2023-02-13T19:34:56.234Z,24.33
2023-02-13T19:37:28.506Z,22.57
2023-02-13T19:39:58.742Z,22.00
2023-02-13T19:42:26.896Z,24.20
2023-02-13T19:44:55.023Z,24.13
2023-02-13T19:47:23.227Z,24.03
2023-02-13T19:49:52.479Z,23.60
2023-02-13T19:52:21.546Z,24.60
2023-02-13T19:54:51.091Z,22.80
2023-02-13T19:57:20.081Z,23.80
2023-02-13T19:59:49.429Z,24.80
2023-02-13T20:02:18.989Z,23.20
2023-02-13T20:04:47.416Z,22.93
2023-02-13T20:07:16.173Z,24.43
2023-02-13T20:09:44.995Z,25.90
2023-02-13T20:12:14.746Z,24.37
2023-02-13T20:14:43.150Z,25.93
2023-02-13T20:17:12.041Z,26.73
2023-02-13T20:19:40.405Z,25.63
2023-02-13T20:22:08.632Z,21.70
2023-02-13T20:24:37.108Z,23.90
2023-02-13T20:27:05.556Z,26.10
2023-02-13T20:29:37.267Z,24.17
2023-02-13T20:32:07.182Z,24.07
2023-02-13T20:34:44.200Z,23.77
2023-02-13T20:37:18.556Z,23.63
2023-02-13T20:39:46.977Z,25.73
2023-02-13T20:42:15.324Z,26.40
2023-02-13T20:44:45.427Z,24.17
2023-02-13T20:47:14.233Z,26.77
2023-02-13T20:49:42.651Z,27.30
2023-02-13T20:52:12.013Z,26.67
2023-02-13T20:54:40.598Z,27.13
2023-02-13T20:57:09.028Z,25.97
2023-02-13T20:59:37.228Z,58.00
2023-02-13T21:02:07.682Z,32.60
2023-02-13T21:04:36.193Z,28.50
2023-02-13T21:07:09.503Z,29.10
2023-02-13T21:09:39.100Z,29.70
2023-02-13T21:12:08.692Z,26.83
2023-02-13T21:14:37.808Z,24.70
2023-02-13T21:17:10.071Z,29.83
2023-02-13T21:19:39.173Z,26.77
2023-02-13T21:22:13.887Z,32.80
2023-02-13T21:24:44.437Z,25.90
2023-02-13T21:27:13.531Z,29.33
2023-02-13T21:29:43.398Z,30.20
2023-02-13T21:32:13.890Z,27.47
2023-02-13T21:34:43.528Z,27.87
2023-02-13T21:37:12.534Z,28.93
2023-02-13T21:39:41.618Z,32.17
2023-02-13T21:42:10.751Z,33.10
2023-02-13T21:47:31.935Z,33.50
2023-02-13T21:50:00.533Z,27.50
2023-02-13T21:52:29.384Z,33.37
2023-02-13T21:54:58.029Z,30.57
2023-02-13T21:57:26.777Z,32.60
2023-02-13T21:59:56.301Z,33.77
2023-02-13T22:02:27.020Z,32.73
2023-02-13T22:04:56.671Z,32.63
2023-02-13T22:07:24.788Z,31.43
2023-02-13T22:09:52.963Z,33.20
2023-02-13T22:12:21.261Z,28.93
2023-02-13T22:14:49.570Z,35.20
2023-02-13T22:17:17.758Z,32.90
2023-02-13T22:19:45.989Z,32.33
2023-02-13T22:22:15.896Z,29.60
2023-02-13T22:24:44.072Z,33.23
2023-02-13T22:27:12.249Z,29.00
2023-02-13T22:29:41.038Z,32.63
2023-02-13T22:32:09.489Z,30.73
2023-02-13T22:34:37.756Z,29.90
2023-02-13T22:37:06.413Z,36.23
2023-02-13T22:39:36.084Z,29.37
2023-02-13T22:42:04.219Z,31.30
2023-02-13T22:44:32.475Z,35.17
2023-02-13T22:47:00.590Z,31.83
2023-02-13T22:49:28.875Z,30.90
2023-02-13T22:51:57.014Z,28.17
2023-02-13T22:54:25.261Z,30.90
2023-02-13T22:56:54.881Z,27.43
2023-02-13T22:59:23.159Z,29.67
2023-02-13T23:01:51.353Z,30.67
2023-02-13T23:04:19.516Z,31.63
2023-02-13T23:06:47.719Z,31.67
2023-02-13T23:09:15.937Z,30.90
2023-02-13T23:12:01.570Z,30.37
2023-02-13T23:14:31.154Z,28.17
2023-02-13T23:17:16.767Z,29.40
2023-02-13T23:19:45.573Z,30.30
2023-02-13T23:22:13.794Z,29.33
2023-02-13T23:24:41.938Z,31.50
2023-02-13T23:27:10.043Z,30.17
2023-02-13T23:29:39.803Z,30.57
2023-02-13T23:32:08.166Z,29.20
2023-02-13T23:34:37.886Z,30.17
2023-02-13T23:37:05.955Z,32.13
2023-02-13T23:39:34.039Z,29.20
2023-02-13T23:42:02.201Z,28.87
2023-02-13T23:44:30.398Z,30.10
2023-02-13T23:46:59.899Z,31.87
2023-02-13T23:49:28.444Z,29.03
2023-02-13T23:51:56.901Z,27.67
2023-02-13T23:54:26.159Z,31.30
2023-02-13T23:56:56.539Z,37.67
2023-02-13T23:59:25.838Z,30.07
